logo dgac
Lunes 27 de Septiembre del 2021
Buscar por aerodromo o helipuerto
Ingrese nombre de aeródromo, localidad o designador OACI:
TAF: TAF SCBA 262215Z 2700/2724 30012KT CAVOK TN00/2711Z TX09/2718Z BECMG 2703/2705 BKN025 BECMG 2713/2715 30022KT SCT035 TEMPO 2717/2721 30022G32KT FEW045
TAF del 26/09/2021 a las 22:15 UTC
Para mayor información visite www.meteochile.cl
Período de validez: desde el 27 a las 00:00 UTC hasta el 27 a las 24:00 UTC
Viento: dirección 300 grados, velocidad 12 nudos
Visibilidad: 10 km o más,
    sin nubes bajo los 5.000 pies o bajo del MSA (Mínimo de Seguridad del Aeródromo),
    sin cumulonimbus, y sin fenómenos de tiempo significativo en el aeródromo o alrededores
Temperatura mínima: 0ºC el 27 a las 11:00 UTC
Temperatura máxima: 9ºC el 27 a las 18:00 UTC
Se espera un cambio entre las 03:00 UTC del 27 y las 05:00 UTC del 27, :
Nubes: Nublado a 2500 pies sobre el nivel del aeródromo
Se espera un cambio entre las 13:00 UTC del 27 y las 15:00 UTC del 27, :
Viento: dirección 300 grados, velocidad 22 nudos
Nubes: Nubosidad parcial a 3500 pies sobre el nivel del aeródromo
Se espera en forma temporal entre las 17:00 UTC del 27 y las 21:00 UTC del 27:
Viento: dirección 300 grados, velocidad 22 nudos, con ráfagas de velocidad máxima de 32Nudos
Nubes: Escasa nubosidad a 4500 pies sobre el nivel del aeródromo